Waterloo, Belgium
Current Conditions -  °F | °C
As of 7:20 PM on Thursday 27 Nov 2014 (Local Time) from EBBR Reporting Station
Broken Clouds Broken Clouds  
Wind Chill: 46°   Ceiling: 1400
Heat Index: 48°   Visibility: 4mi
Dew Point: 46°   Wind: 5mph
Humidity: 93%   Direction: 110°ESE
Pressure: 29.68"   Gusts: NA
Location:  50.71°N, 4.4°E
Report Text: EBBR 271820Z 11004KT 7000 SCT006 BKN014 09/08 Q1005 TEMPO BKN006
Loading
Personal Weather Stations






























Interactive Weather Map New forecast layout! Learn more

10-Day Weather Forecast

Advertisements
Track Severe Weather on mobile